createdAt,value
2018-02-15T00:02:19.165Z,95.80
2018-02-15T00:04:46.630Z,95.80
2018-02-15T00:07:14.177Z,96.00
2018-02-15T00:09:41.662Z,96.10
2018-02-15T00:12:09.312Z,95.90
2018-02-15T00:14:36.870Z,95.80
2018-02-15T00:17:04.538Z,95.80
2018-02-15T00:19:32.782Z,95.70
2018-02-15T00:22:00.257Z,95.70
2018-02-15T00:24:27.729Z,96.00
2018-02-15T00:26:55.957Z,96.00
2018-02-15T00:29:23.428Z,96.00
2018-02-15T00:31:50.954Z,95.70
2018-02-15T00:34:18.570Z,95.60
2018-02-15T00:36:46.026Z,95.70
2018-02-15T00:39:13.510Z,95.50
2018-02-15T00:41:41.740Z,95.70
2018-02-15T00:44:09.217Z,95.70
2018-02-15T00:46:36.677Z,95.40
2018-02-15T00:49:05.131Z,95.60
2018-02-15T00:51:32.721Z,95.50
2018-02-15T00:54:00.978Z,95.50
2018-02-15T00:56:29.212Z,95.30
2018-02-15T00:58:56.674Z,95.30
2018-02-15T01:01:24.145Z,95.40
2018-02-15T01:03:51.609Z,95.30
2018-02-15T01:06:19.125Z,95.30
2018-02-15T01:08:46.604Z,95.10
2018-02-15T01:11:14.083Z,95.20
2018-02-15T01:13:41.553Z,95.20
2018-02-15T01:16:09.020Z,95.00
2018-02-15T01:18:36.489Z,94.90
2018-02-15T01:21:04.743Z,95.20
2018-02-15T01:23:32.323Z,95.20
2018-02-15T01:25:59.791Z,95.10
2018-02-15T01:28:28.691Z,94.60
2018-02-15T01:30:56.908Z,94.40
2018-02-15T01:33:24.380Z,94.40
2018-02-15T01:35:51.842Z,94.60
2018-02-15T01:38:19.316Z,94.60
2018-02-15T01:40:47.541Z,94.20
2018-02-15T01:43:15.012Z,94.20
2018-02-15T01:45:42.486Z,94.40
2018-02-15T01:48:09.960Z,94.10
2018-02-15T01:50:38.256Z,94.00
2018-02-15T01:53:05.732Z,93.80
2018-02-15T01:55:33.192Z,93.90
2018-02-15T01:58:00.725Z,93.90
2018-02-15T02:00:28.185Z,93.80
2018-02-15T02:02:55.810Z,93.90
2018-02-15T02:05:23.363Z,93.90
2018-02-15T02:07:50.845Z,93.90
2018-02-15T02:10:19.082Z,93.70
2018-02-15T02:12:46.550Z,93.70
2018-02-15T02:15:14.789Z,93.50
2018-02-15T02:17:42.270Z,93.50
2018-02-15T02:20:09.746Z,93.70
2018-02-15T02:22:37.216Z,93.90
2018-02-15T02:25:04.684Z,93.40
2018-02-15T02:27:32.918Z,93.70
2018-02-15T02:30:00.527Z,93.70
2018-02-15T02:32:28.810Z,93.50
2018-02-15T02:34:56.287Z,93.50
2018-02-15T02:37:23.741Z,93.60
2018-02-15T02:39:51.221Z,93.70
2018-02-15T02:42:18.785Z,94.00
2018-02-15T02:44:46.271Z,93.80
2018-02-15T02:47:14.558Z,93.80
2018-02-15T02:49:42.838Z,93.80
2018-02-15T02:52:11.053Z,93.90
2018-02-15T02:54:38.516Z,93.90
2018-02-15T02:57:05.992Z,94.20
2018-02-15T02:59:33.467Z,94.60
2018-02-15T03:02:00.934Z,94.70
2018-02-15T03:04:29.170Z,95.70
2018-02-15T03:06:56.652Z,95.70
2018-02-15T03:09:24.216Z,95.90
2018-02-15T03:11:51.688Z,96.60
2018-02-15T03:14:19.909Z,99.10
2018-02-15T03:16:47.366Z,99.20
2018-02-15T03:19:14.845Z,98.40
2018-02-15T03:21:42.381Z,98.40
2018-02-15T03:24:09.853Z,99.20
2018-02-15T03:26:37.327Z,99.80
2018-02-15T03:29:04.836Z,99.90
2018-02-15T03:31:32.317Z,99.90
2018-02-15T03:33:59.793Z,99.90
2018-02-15T03:36:27.272Z,99.90
2018-02-15T03:38:55.735Z,99.90
2018-02-15T03:41:23.293Z,99.90
2018-02-15T03:43:50.826Z,99.90
2018-02-15T03:46:18.313Z,99.90
2018-02-15T03:48:46.577Z,99.90
2018-02-15T03:51:15.546Z,99.90
2018-02-15T03:53:43.028Z,99.90
2018-02-15T03:56:10.508Z,99.90
2018-02-15T03:58:38.020Z,99.90
2018-02-15T04:01:05.500Z,99.90
2018-02-15T04:03:32.989Z,99.90
2018-02-15T04:06:01.220Z,99.90
2018-02-15T04:08:28.692Z,99.90
2018-02-15T04:10:56.164Z,99.90
2018-02-15T04:13:24.401Z,99.90
2018-02-15T04:15:51.952Z,99.90
2018-02-15T04:18:19.439Z,99.90
2018-02-15T04:20:46.916Z,99.90
2018-02-15T04:23:15.140Z,99.90
2018-02-15T04:25:42.733Z,99.90
2018-02-15T04:28:10.273Z,99.90
2018-02-15T04:30:37.752Z,99.90
2018-02-15T04:33:05.221Z,99.90
2018-02-15T04:35:33.466Z,99.90
2018-02-15T04:38:00.943Z,99.90
2018-02-15T04:40:28.421Z,99.90
2018-02-15T04:42:56.678Z,99.90
2018-02-15T04:45:24.148Z,99.90
2018-02-15T04:47:52.391Z,99.90
2018-02-15T04:50:19.868Z,99.90
2018-02-15T04:52:47.354Z,99.90
2018-02-15T04:55:14.885Z,99.90
2018-02-15T04:57:42.406Z,99.90
2018-02-15T05:00:10.085Z,99.90
2018-02-15T05:02:37.610Z,99.90
2018-02-15T05:05:05.217Z,99.90
2018-02-15T05:07:34.198Z,99.90
2018-02-15T05:10:01.671Z,99.90
2018-02-15T05:12:29.144Z,99.90
2018-02-15T05:14:57.380Z,99.90
2018-02-15T05:17:24.849Z,99.90
2018-02-15T05:19:52.310Z,99.90
2018-02-15T05:22:19.850Z,99.90
2018-02-15T05:24:47.312Z,99.90
2018-02-15T05:27:14.772Z,99.90
2018-02-15T05:29:42.256Z,99.90
2018-02-15T05:32:09.704Z,99.90
2018-02-15T05:34:37.948Z,99.90
2018-02-15T05:37:05.413Z,99.90
2018-02-15T05:39:32.887Z,99.90
2018-02-15T05:42:00.356Z,99.90
2018-02-15T05:44:28.653Z,99.90
2018-02-15T05:46:56.881Z,99.90
2018-02-15T05:49:25.134Z,99.90
2018-02-15T05:51:52.608Z,99.90
2018-02-15T05:54:20.084Z,99.90
2018-02-15T05:56:49.089Z,99.90
2018-02-15T05:59:16.561Z,99.90
2018-02-15T06:01:44.797Z,99.90
2018-02-15T06:04:12.276Z,99.90
2018-02-15T06:06:39.790Z,99.90
2018-02-15T06:09:07.544Z,99.90
2018-02-15T06:11:35.162Z,99.90
2018-02-15T06:14:03.437Z,99.90
2018-02-15T06:16:31.817Z,99.90
2018-02-15T06:19:00.045Z,99.90
2018-02-15T06:21:27.531Z,99.90
2018-02-15T06:23:54.998Z,99.90
2018-02-15T06:26:23.253Z,99.90
2018-02-15T06:28:50.821Z,99.90
2018-02-15T06:31:18.385Z,99.90
2018-02-15T06:33:45.840Z,99.90
2018-02-15T06:36:13.393Z,99.90
2018-02-15T06:38:40.849Z,99.90
2018-02-15T06:41:08.326Z,99.90
2018-02-15T06:43:36.649Z,99.90
2018-02-15T06:46:04.138Z,99.90
2018-02-15T06:48:31.621Z,99.90
2018-02-15T06:50:59.861Z,99.90
2018-02-15T06:53:27.349Z,99.90
2018-02-15T06:55:55.593Z,99.90
2018-02-15T06:58:23.169Z,99.90
2018-02-15T07:00:50.649Z,99.90
2018-02-15T07:03:18.892Z,99.90
2018-02-15T07:05:46.361Z,99.90
2018-02-15T07:08:13.831Z,99.90
2018-02-15T07:10:42.065Z,99.90
2018-02-15T07:13:09.611Z,99.90
2018-02-15T07:15:37.145Z,99.90
2018-02-15T07:18:04.620Z,99.90
2018-02-15T07:20:32.084Z,99.90
2018-02-15T07:22:59.565Z,99.90
2018-02-15T07:25:27.107Z,99.90
2018-02-15T07:27:54.569Z,99.90
2018-02-15T07:30:22.070Z,99.90
2018-02-15T07:32:50.405Z,99.90
2018-02-15T07:35:17.906Z,99.90
2018-02-15T07:37:46.136Z,99.90
2018-02-15T07:40:13.805Z,99.90
2018-02-15T07:42:41.427Z,99.90
2018-02-15T07:45:08.897Z,99.90
2018-02-15T07:47:36.373Z,99.90
2018-02-15T07:50:03.861Z,99.90
2018-02-15T07:52:31.323Z,99.90
2018-02-15T07:55:02.037Z,99.90
2018-02-15T07:57:29.507Z,99.90
2018-02-15T07:59:56.977Z,99.90
2018-02-15T08:02:25.412Z,99.90
2018-02-15T08:04:53.657Z,99.90
2018-02-15T08:07:21.107Z,99.90
2018-02-15T08:09:48.578Z,99.90
2018-02-15T08:12:16.066Z,99.90
2018-02-15T08:14:43.563Z,99.90
2018-02-15T08:17:11.811Z,99.90
2018-02-15T08:19:39.285Z,99.90
2018-02-15T08:22:06.765Z,99.90
2018-02-15T08:24:34.226Z,99.90
2018-02-15T08:27:01.723Z,99.90
2018-02-15T08:29:29.187Z,99.90
2018-02-15T08:31:56.666Z,99.90
2018-02-15T08:34:24.133Z,99.90
2018-02-15T08:36:52.572Z,99.90
2018-02-15T08:39:20.249Z,99.90
2018-02-15T08:41:47.753Z,99.90
2018-02-15T08:44:15.335Z,99.90
2018-02-15T08:46:42.883Z,99.90
2018-02-15T08:49:11.843Z,99.90
2018-02-15T08:51:40.082Z,99.90
2018-02-15T08:54:07.563Z,99.90
2018-02-15T08:56:35.070Z,99.90
2018-02-15T08:59:02.539Z,99.90
2018-02-15T09:01:30.014Z,99.90
2018-02-15T09:03:57.483Z,99.90
2018-02-15T09:06:24.952Z,99.90
2018-02-15T09:08:52.425Z,99.90
2018-02-15T09:11:20.677Z,99.90
2018-02-15T09:13:48.157Z,99.90
2018-02-15T09:16:16.398Z,99.90
2018-02-15T09:18:43.892Z,99.90
2018-02-15T09:21:12.125Z,99.90
2018-02-15T09:23:39.627Z,99.90
2018-02-15T09:26:07.856Z,99.90
2018-02-15T09:28:35.330Z,99.90
2018-02-15T09:31:02.816Z,99.90
2018-02-15T09:33:31.165Z,99.90
2018-02-15T09:35:58.661Z,99.90
2018-02-15T09:38:26.128Z,99.90
2018-02-15T09:40:53.690Z,99.90
2018-02-15T09:43:21.156Z,99.90
2018-02-15T09:45:48.715Z,99.90
2018-02-15T09:48:16.187Z,99.90
2018-02-15T09:50:43.661Z,99.90
2018-02-15T09:53:11.336Z,99.90
2018-02-15T09:55:38.844Z,99.90
2018-02-15T09:58:06.335Z,99.90
2018-02-15T10:00:33.817Z,99.90
2018-02-15T10:03:02.192Z,99.90
2018-02-15T10:05:29.848Z,99.90
2018-02-15T10:07:57.313Z,99.90
2018-02-15T10:10:25.623Z,99.90
2018-02-15T10:12:53.848Z,99.90
2018-02-15T10:15:23.045Z,99.90
2018-02-15T10:17:50.553Z,99.90
2018-02-15T10:20:18.031Z,99.90
2018-02-15T10:22:45.528Z,99.90
2018-02-15T10:25:13.033Z,99.90
2018-02-15T10:27:41.129Z,99.90
2018-02-15T10:30:08.624Z,99.90
2018-02-15T10:32:36.858Z,99.90
2018-02-15T10:35:04.913Z,99.90
2018-02-15T10:37:32.386Z,99.90
2018-02-15T10:39:59.924Z,99.90
2018-02-15T10:42:28.129Z,99.90
2018-02-15T10:44:55.629Z,99.90
2018-02-15T10:47:23.086Z,99.90
2018-02-15T10:49:51.332Z,99.90
2018-02-15T10:52:19.265Z,99.90
2018-02-15T10:54:46.759Z,99.90
2018-02-15T10:57:14.240Z,99.90
2018-02-15T10:59:42.578Z,99.90
2018-02-15T11:02:15.790Z,99.90
2018-02-15T11:04:49.778Z,99.90
2018-02-15T11:07:17.249Z,99.90
2018-02-15T11:09:44.732Z,99.90
2018-02-15T11:12:12.956Z,99.90
2018-02-15T11:14:40.937Z,99.90
2018-02-15T11:17:08.665Z,99.90
2018-02-15T11:19:36.143Z,99.90
2018-02-15T11:22:03.605Z,99.90
2018-02-15T11:24:31.197Z,99.90
2018-02-15T11:26:58.660Z,99.90
2018-02-15T11:29:26.897Z,99.90
2018-02-15T11:31:54.390Z,99.90
2018-02-15T11:34:21.885Z,99.90
2018-02-15T11:36:50.119Z,99.90
2018-02-15T11:39:17.633Z,99.90
2018-02-15T11:41:45.113Z,99.90
2018-02-15T11:44:12.601Z,99.90
2018-02-15T11:46:40.850Z,99.90
2018-02-15T11:49:08.487Z,99.90
2018-02-15T11:51:35.970Z,99.90
2018-02-15T11:54:03.574Z,99.90
2018-02-15T11:56:31.084Z,99.90
2018-02-15T11:58:58.533Z,99.90
2018-02-15T12:01:26.569Z,99.90
2018-02-15T12:03:54.077Z,99.90
2018-02-15T12:06:21.549Z,99.90
2018-02-15T12:08:49.781Z,99.90
2018-02-15T12:11:17.358Z,99.90
2018-02-15T12:13:44.823Z,99.90
2018-02-15T12:16:12.281Z,99.90
2018-02-15T12:18:39.755Z,99.90
2018-02-15T12:21:07.988Z,99.90
2018-02-15T12:23:35.474Z,99.90
2018-02-15T12:26:04.565Z,99.90
2018-02-15T12:28:32.770Z,99.90
2018-02-15T12:31:01.020Z,99.90
2018-02-15T12:33:28.505Z,99.90
2018-02-15T12:35:57.387Z,99.90
2018-02-15T12:38:25.648Z,99.90
2018-02-15T12:40:53.208Z,99.90
2018-02-15T12:43:20.633Z,99.90
2018-02-15T12:45:48.256Z,99.90
2018-02-15T12:48:15.693Z,99.90
2018-02-15T12:50:43.929Z,99.90
2018-02-15T12:53:11.426Z,99.90
2018-02-15T12:55:39.776Z,99.90
2018-02-15T12:58:07.421Z,99.90
2018-02-15T13:00:35.224Z,99.90
2018-02-15T13:03:02.756Z,99.90
2018-02-15T13:05:30.246Z,99.90
2018-02-15T13:07:58.531Z,99.90
2018-02-15T13:10:26.097Z,99.90
2018-02-15T13:13:05.588Z,99.90
2018-02-15T13:15:44.861Z,99.90
2018-02-15T13:18:12.392Z,99.90
2018-02-15T13:20:40.696Z,99.90
2018-02-15T13:23:08.228Z,99.90
2018-02-15T13:25:36.494Z,99.90
2018-02-15T13:28:15.926Z,99.90
2018-02-15T13:30:43.478Z,99.90
2018-02-15T13:33:11.000Z,99.90
2018-02-15T13:35:38.495Z,99.90
2018-02-15T13:38:06.158Z,99.90
2018-02-15T13:40:33.848Z,99.90
2018-02-15T13:43:02.106Z,99.90
2018-02-15T13:45:29.586Z,99.90
2018-02-15T13:47:57.832Z,99.90
2018-02-15T13:50:25.312Z,99.90
2018-02-15T13:52:53.653Z,99.90
2018-02-15T13:55:21.174Z,99.90
2018-02-15T13:57:48.680Z,99.90
2018-02-15T14:00:17.709Z,99.90
2018-02-15T14:02:45.998Z,99.90
2018-02-15T14:05:13.552Z,99.90
2018-02-15T14:07:41.216Z,99.90
2018-02-15T14:10:08.736Z,99.90
2018-02-15T14:12:36.458Z,99.90
2018-02-15T14:15:04.135Z,99.90
2018-02-15T14:17:31.652Z,99.90
2018-02-15T14:19:59.165Z,99.90
2018-02-15T14:22:27.485Z,99.90
2018-02-15T14:24:54.985Z,99.90
2018-02-15T14:27:22.489Z,99.90
2018-02-15T14:29:50.810Z,99.90
2018-02-15T14:32:18.351Z,99.90
2018-02-15T14:34:45.826Z,99.90
2018-02-15T14:37:13.440Z,99.90
2018-02-15T14:39:41.744Z,99.90
2018-02-15T14:42:09.303Z,99.90
2018-02-15T14:44:37.005Z,99.90
2018-02-15T14:47:05.283Z,99.90
2018-02-15T14:49:33.565Z,99.90
2018-02-15T14:52:01.154Z,99.90
2018-02-15T14:54:28.674Z,99.90
2018-02-15T14:56:56.145Z,99.90
2018-02-15T14:59:23.627Z,99.90
2018-02-15T15:01:51.860Z,99.90
2018-02-15T15:04:19.365Z,99.90
2018-02-15T15:06:47.647Z,99.90
2018-02-15T15:09:15.924Z,99.90
2018-02-15T15:11:43.456Z,99.90
2018-02-15T15:14:11.249Z,99.90
2018-02-15T15:16:38.795Z,99.90
2018-02-15T15:19:07.451Z,99.90
2018-02-15T15:21:34.962Z,99.90
2018-02-15T15:24:02.474Z,99.90
2018-02-15T15:26:29.982Z,99.90
2018-02-15T15:28:57.497Z,99.90
2018-02-15T15:31:25.059Z,99.90
2018-02-15T15:33:52.704Z,99.90
2018-02-15T15:36:20.336Z,99.90
2018-02-15T15:38:47.887Z,99.90
2018-02-15T15:41:15.390Z,99.90
2018-02-15T15:43:42.906Z,99.90
2018-02-15T15:46:10.533Z,99.90
2018-02-15T15:48:38.103Z,99.90
2018-02-15T15:51:05.619Z,99.90
2018-02-15T15:53:33.097Z,99.90
2018-02-15T15:56:01.345Z,99.90
2018-02-15T15:58:28.829Z,99.90
2018-02-15T16:00:57.205Z,99.90
2018-02-15T16:03:25.673Z,99.90
2018-02-15T16:05:53.352Z,99.90
2018-02-15T16:08:21.626Z,99.90
2018-02-15T16:10:49.113Z,99.90
2018-02-15T16:13:16.835Z,99.90
2018-02-15T16:15:45.879Z,99.90
2018-02-15T16:18:13.379Z,99.90
2018-02-15T16:20:40.868Z,99.90
2018-02-15T16:23:09.126Z,99.90
2018-02-15T16:25:37.394Z,99.90
2018-02-15T16:28:04.877Z,99.90
2018-02-15T16:30:32.369Z,99.90
2018-02-15T16:32:59.844Z,99.90
2018-02-15T16:35:27.469Z,99.90
2018-02-15T16:37:55.114Z,99.90
2018-02-15T16:40:23.345Z,99.90
2018-02-15T16:42:50.833Z,99.90
2018-02-15T16:45:19.186Z,99.90
2018-02-15T16:47:46.713Z,99.90
2018-02-15T16:50:14.490Z,99.90
2018-02-15T16:52:41.988Z,99.90
2018-02-15T16:55:09.513Z,99.90
2018-02-15T16:57:37.020Z,99.90
2018-02-15T17:00:04.559Z,99.90
2018-02-15T17:02:32.057Z,99.90
2018-02-15T17:04:59.571Z,99.90
2018-02-15T17:07:27.082Z,99.90
2018-02-15T17:09:55.604Z,99.90
2018-02-15T17:12:23.855Z,99.90
2018-02-15T17:14:51.357Z,99.90
2018-02-15T17:17:19.638Z,99.90
2018-02-15T17:19:47.908Z,99.90
2018-02-15T17:22:16.425Z,99.90
2018-02-15T17:24:43.934Z,99.90
2018-02-15T17:27:11.594Z,99.90
2018-02-15T17:29:39.171Z,99.90
2018-02-15T17:32:07.416Z,99.90
2018-02-15T17:34:35.740Z,99.90
2018-02-15T17:37:03.249Z,99.90
2018-02-15T17:39:30.730Z,99.90
2018-02-15T17:41:58.213Z,99.90
2018-02-15T17:44:25.800Z,99.90
2018-02-15T17:46:53.403Z,99.90
2018-02-15T17:49:20.966Z,99.90
2018-02-15T17:51:49.394Z,99.90
2018-02-15T17:54:16.904Z,99.90
2018-02-15T17:56:45.169Z,99.90
2018-02-15T17:59:12.716Z,99.90
2018-02-15T18:01:40.262Z,99.90
2018-02-15T18:04:07.756Z,99.90
2018-02-15T18:06:36.088Z,99.90
2018-02-15T18:09:03.671Z,99.90
2018-02-15T18:11:32.015Z,99.90
2018-02-15T18:13:59.503Z,99.90
2018-02-15T18:16:27.034Z,99.90
2018-02-15T18:18:54.568Z,99.90
2018-02-15T18:21:22.044Z,99.90
2018-02-15T18:23:49.553Z,99.90
2018-02-15T18:26:17.889Z,99.90
2018-02-15T18:28:45.607Z,99.90
2018-02-15T18:31:13.346Z,99.90
2018-02-15T18:33:41.070Z,99.90
2018-02-15T18:36:08.676Z,99.90
2018-02-15T18:38:36.672Z,99.90
2018-02-15T18:41:04.251Z,99.90
2018-02-15T18:43:32.035Z,99.90
2018-02-15T18:45:59.600Z,99.90
2018-02-15T18:48:27.405Z,99.90
2018-02-15T18:50:54.966Z,99.90
2018-02-15T18:53:22.702Z,99.90
2018-02-15T18:55:50.239Z,99.90
2018-02-15T18:58:17.757Z,99.90
2018-02-15T19:00:45.270Z,99.90
2018-02-15T19:03:12.833Z,99.90
2018-02-15T19:05:40.400Z,99.90
2018-02-15T19:08:07.932Z,99.90
2018-02-15T19:10:35.501Z,99.90
2018-02-15T19:13:03.005Z,99.90
2018-02-15T19:15:31.016Z,99.90
2018-02-15T19:17:58.616Z,99.90
2018-02-15T19:20:26.134Z,99.90
2018-02-15T19:22:53.606Z,99.90
2018-02-15T19:25:21.076Z,99.90
2018-02-15T19:27:48.540Z,99.90
2018-02-15T19:30:16.018Z,99.90
2018-02-15T19:32:44.256Z,99.90
2018-02-15T19:35:11.754Z,99.90
2018-02-15T19:37:39.996Z,99.90
2018-02-15T19:40:07.515Z,99.90
2018-02-15T19:42:35.019Z,99.90
2018-02-15T19:45:04.024Z,99.90
2018-02-15T19:47:32.279Z,99.90
2018-02-15T19:49:59.773Z,99.90
2018-02-15T19:52:27.239Z,99.90
2018-02-15T19:54:54.742Z,99.90
2018-02-15T19:57:22.228Z,99.90
2018-02-15T19:59:49.740Z,99.90
2018-02-15T20:02:17.693Z,99.90
2018-02-15T20:04:45.277Z,99.90
2018-02-15T20:07:12.826Z,99.90
2018-02-15T20:09:40.376Z,99.90
2018-02-15T20:12:07.977Z,99.90
2018-02-15T20:14:35.556Z,99.90
2018-02-15T20:17:04.468Z,99.90
2018-02-15T20:19:31.950Z,99.90
2018-02-15T20:21:59.450Z,99.90
2018-02-15T20:24:27.687Z,99.90
2018-02-15T20:27:00.956Z,99.90
2018-02-15T20:29:28.430Z,99.90
2018-02-15T20:31:55.902Z,99.90
2018-02-15T20:34:23.363Z,99.90
2018-02-15T20:36:50.856Z,99.90
2018-02-15T20:39:24.717Z,99.90
2018-02-15T20:41:52.193Z,99.90
2018-02-15T20:44:19.661Z,99.90
2018-02-15T20:46:47.166Z,99.90
2018-02-15T20:49:20.193Z,99.90
2018-02-15T20:51:53.514Z,99.90
2018-02-15T20:54:27.478Z,99.90
2018-02-15T20:56:55.640Z,99.90
2018-02-15T20:59:23.174Z,99.90
2018-02-15T21:01:50.652Z,99.90
2018-02-15T21:04:18.172Z,99.90
2018-02-15T21:06:46.417Z,99.90
2018-02-15T21:09:13.975Z,99.90
2018-02-15T21:11:41.656Z,99.90
2018-02-15T21:14:09.114Z,99.90
2018-02-15T21:16:36.607Z,99.90
2018-02-15T21:19:04.086Z,99.90
2018-02-15T21:21:31.569Z,99.90
2018-02-15T21:23:59.176Z,99.90
2018-02-15T21:26:26.765Z,99.90
2018-02-15T21:28:54.278Z,99.90
2018-02-15T21:31:22.578Z,99.90
2018-02-15T21:33:50.058Z,99.90
2018-02-15T21:36:17.539Z,99.90
2018-02-15T21:38:45.014Z,99.90
2018-02-15T21:41:12.623Z,99.90
2018-02-15T21:43:40.225Z,99.90
2018-02-15T21:46:07.761Z,99.90
2018-02-15T21:48:35.295Z,99.90
2018-02-15T21:51:02.754Z,99.90
2018-02-15T21:53:30.238Z,99.90
2018-02-15T21:55:57.718Z,99.90
2018-02-15T21:58:26.714Z,99.90
2018-02-15T22:00:55.100Z,99.90
2018-02-15T22:03:23.366Z,99.90
2018-02-15T22:05:50.842Z,99.90
2018-02-15T22:08:19.517Z,99.90
2018-02-15T22:10:47.828Z,99.90
2018-02-15T22:13:15.344Z,99.90
2018-02-15T22:15:42.826Z,99.90
2018-02-15T22:18:11.081Z,99.90
2018-02-15T22:20:39.333Z,99.90
2018-02-15T22:23:06.813Z,99.90
2018-02-15T22:25:34.291Z,99.90
2018-02-15T22:28:02.606Z,99.90
2018-02-15T22:30:30.062Z,99.90
2018-02-15T22:32:57.566Z,99.90
2018-02-15T22:35:25.809Z,99.90
2018-02-15T22:37:53.289Z,99.90
2018-02-15T22:40:20.776Z,99.90
2018-02-15T22:42:48.232Z,99.90
2018-02-15T22:45:15.724Z,99.90
2018-02-15T22:47:43.185Z,99.90
2018-02-15T22:50:10.652Z,99.90
2018-02-15T22:52:38.132Z,99.90
2018-02-15T22:55:05.613Z,99.90
2018-02-15T22:57:33.837Z,99.90
2018-02-15T23:00:01.433Z,99.90
2018-02-15T23:02:29.669Z,99.90
2018-02-15T23:04:57.141Z,99.90
2018-02-15T23:07:24.619Z,99.90
2018-02-15T23:09:52.863Z,99.90
2018-02-15T23:12:20.331Z,99.90
2018-02-15T23:14:47.853Z,99.90
2018-02-15T23:17:15.497Z,99.90
2018-02-15T23:19:43.016Z,99.90
2018-02-15T23:22:10.678Z,99.90
2018-02-15T23:24:38.212Z,99.90
2018-02-15T23:27:05.710Z,99.90
2018-02-15T23:29:33.946Z,99.90
2018-02-15T23:32:01.417Z,99.90
2018-02-15T23:34:29.703Z,99.90
2018-02-15T23:36:57.172Z,99.90
2018-02-15T23:39:25.402Z,99.90
2018-02-15T23:41:52.953Z,99.90
2018-02-15T23:44:20.519Z,99.90
2018-02-15T23:46:47.996Z,99.90
2018-02-15T23:49:15.470Z,99.90
2018-02-15T23:51:42.953Z,99.90
2018-02-15T23:54:11.226Z,99.90
2018-02-15T23:56:39.549Z,99.90
2018-02-15T23:59:07.036Z,99.90
